sensor_id;sensor_type;location;lat;lon;timestamp;temperature;humidity
40504;DHT22;42292;49.048;8.374;2022-11-20T00:01:17;5.70;99.90
40504;DHT22;42292;49.048;8.374;2022-11-20T00:03:43;5.80;99.90
40504;DHT22;42292;49.048;8.374;2022-11-20T00:06:14;5.80;99.90
40504;DHT22;42292;49.048;8.374;2022-11-20T00:08:41;5.90;99.90
40504;DHT22;42292;49.048;8.374;2022-11-20T00:11:11;5.90;99.90
40504;DHT22;42292;49.048;8.374;2022-11-20T00:13:39;5.90;99.90
40504;DHT22;42292;49.048;8.374;2022-11-20T00:16:07;5.90;99.90
40504;DHT22;42292;49.048;8.374;2022-11-20T00:18:33;5.90;99.90
40504;DHT22;42292;49.048;8.374;2022-11-20T00:21:09;5.90;99.90
40504;DHT22;42292;49.048;8.374;2022-11-20T00:23:37;6.00;99.90
40504;DHT22;42292;49.048;8.374;2022-11-20T00:26:08;6.10;99.90
40504;DHT22;42292;49.048;8.374;2022-11-20T00:28:35;6.10;99.90
40504;DHT22;42292;49.048;8.374;2022-11-20T00:31:06;6.10;99.90
40504;DHT22;42292;49.048;8.374;2022-11-20T00:33:34;6.00;99.90
40504;DHT22;42292;49.048;8.374;2022-11-20T00:36:05;6.00;99.90
40504;DHT22;42292;49.048;8.374;2022-11-20T00:38:31;5.90;99.90
40504;DHT22;42292;49.048;8.374;2022-11-20T00:41:01;5.90;99.90
40504;DHT22;42292;49.048;8.374;2022-11-20T00:43:27;6.00;99.90
40504;DHT22;42292;49.048;8.374;2022-11-20T00:46:01;5.90;99.90
40504;DHT22;42292;49.048;8.374;2022-11-20T00:48:29;5.90;99.90
40504;DHT22;42292;49.048;8.374;2022-11-20T00:50:56;5.90;99.90
40504;DHT22;42292;49.048;8.374;2022-11-20T00:53:22;5.80;99.90
40504;DHT22;42292;49.048;8.374;2022-11-20T00:58:23;5.60;99.90
40504;DHT22;42292;49.048;8.374;2022-11-20T01:00:49;5.50;99.90
40504;DHT22;42292;49.048;8.374;2022-11-20T01:03:18;5.80;99.90
40504;DHT22;42292;49.048;8.374;2022-11-20T01:05:44;5.60;99.90
40504;DHT22;42292;49.048;8.374;2022-11-20T01:08:16;5.70;99.90
40504;DHT22;42292;49.048;8.374;2022-11-20T01:10:42;5.90;99.90
40504;DHT22;42292;49.048;8.374;2022-11-20T01:13:10;6.20;99.90
40504;DHT22;42292;49.048;8.374;2022-11-20T01:15:54;6.10;99.90
40504;DHT22;42292;49.048;8.374;2022-11-20T01:18:21;5.80;99.90
40504;DHT22;42292;49.048;8.374;2022-11-20T01:20:52;5.90;99.90
40504;DHT22;42292;49.048;8.374;2022-11-20T01:23:17;5.80;99.90
40504;DHT22;42292;49.048;8.374;2022-11-20T01:25:45;5.70;99.90
40504;DHT22;42292;49.048;8.374;2022-11-20T01:28:11;5.60;99.90
40504;DHT22;42292;49.048;8.374;2022-11-20T01:30:36;5.60;99.90
40504;DHT22;42292;49.048;8.374;2022-11-20T01:33:02;5.60;99.90
40504;DHT22;42292;49.048;8.374;2022-11-20T01:35:30;5.60;99.90
40504;DHT22;42292;49.048;8.374;2022-11-20T01:37:55;5.60;99.90
40504;DHT22;42292;49.048;8.374;2022-11-20T01:40:23;5.70;99.90
40504;DHT22;42292;49.048;8.374;2022-11-20T01:42:58;5.70;99.90
40504;DHT22;42292;49.048;8.374;2022-11-20T01:48:18;5.90;99.90
40504;DHT22;42292;49.048;8.374;2022-11-20T01:50:45;5.90;99.90
40504;DHT22;42292;49.048;8.374;2022-11-20T01:53:16;5.90;99.90
40504;DHT22;42292;49.048;8.374;2022-11-20T01:55:55;6.00;99.90
40504;DHT22;42292;49.048;8.374;2022-11-20T01:58:30;6.10;99.90
40504;DHT22;42292;49.048;8.374;2022-11-20T02:00:56;6.10;99.90
40504;DHT22;42292;49.048;8.374;2022-11-20T02:03:25;6.20;99.90
40504;DHT22;42292;49.048;8.374;2022-11-20T02:05:58;6.40;99.90
40504;DHT22;42292;49.048;8.374;2022-11-20T02:08:28;6.50;99.90
40504;DHT22;42292;49.048;8.374;2022-11-20T02:10:56;6.60;99.90
40504;DHT22;42292;49.048;8.374;2022-11-20T02:13:26;6.60;99.90
40504;DHT22;42292;49.048;8.374;2022-11-20T02:16:15;6.70;99.90
40504;DHT22;42292;49.048;8.374;2022-11-20T02:18:44;6.90;99.90
40504;DHT22;42292;49.048;8.374;2022-11-20T02:26:28;7.00;99.90
40504;DHT22;42292;49.048;8.374;2022-11-20T02:28:54;7.10;99.90
40504;DHT22;42292;49.048;8.374;2022-11-20T02:31:20;7.20;99.90
40504;DHT22;42292;49.048;8.374;2022-11-20T02:33:46;7.20;99.90
40504;DHT22;42292;49.048;8.374;2022-11-20T02:36:16;7.30;99.90
40504;DHT22;42292;49.048;8.374;2022-11-20T02:38:43;7.30;99.90
40504;DHT22;42292;49.048;8.374;2022-11-20T02:41:09;7.30;99.90
40504;DHT22;42292;49.048;8.374;2022-11-20T02:43:34;7.20;99.90
40504;DHT22;42292;49.048;8.374;2022-11-20T02:46:00;7.40;99.90
40504;DHT22;42292;49.048;8.374;2022-11-20T02:48:25;7.50;99.90
40504;DHT22;42292;49.048;8.374;2022-11-20T02:50:51;7.60;99.90
40504;DHT22;42292;49.048;8.374;2022-11-20T02:53:19;7.60;99.90
40504;DHT22;42292;49.048;8.374;2022-11-20T02:55:44;7.60;99.90
40504;DHT22;42292;49.048;8.374;2022-11-20T02:58:12;7.60;99.90
40504;DHT22;42292;49.048;8.374;2022-11-20T03:00:40;7.60;99.90
40504;DHT22;42292;49.048;8.374;2022-11-20T03:03:05;7.70;99.90
40504;DHT22;42292;49.048;8.374;2022-11-20T03:05:31;7.70;99.90
40504;DHT22;42292;49.048;8.374;2022-11-20T03:07:56;7.70;99.90
40504;DHT22;42292;49.048;8.374;2022-11-20T03:10:24;7.80;99.90
40504;DHT22;42292;49.048;8.374;2022-11-20T03:12:56;7.90;99.90
40504;DHT22;42292;49.048;8.374;2022-11-20T03:15:23;7.70;99.90
40504;DHT22;42292;49.048;8.374;2022-11-20T03:17:52;7.90;99.90
40504;DHT22;42292;49.048;8.374;2022-11-20T03:20:17;7.90;99.90
40504;DHT22;42292;49.048;8.374;2022-11-20T03:22:43;7.90;99.90
40504;DHT22;42292;49.048;8.374;2022-11-20T03:25:11;7.90;99.90
40504;DHT22;42292;49.048;8.374;2022-11-20T03:27:36;7.90;99.90
40504;DHT22;42292;49.048;8.374;2022-11-20T03:30:03;7.90;99.90
40504;DHT22;42292;49.048;8.374;2022-11-20T03:32:29;7.80;99.90
40504;DHT22;42292;49.048;8.374;2022-11-20T03:34:59;7.80;99.90
40504;DHT22;42292;49.048;8.374;2022-11-20T03:37:27;7.80;99.90
40504;DHT22;42292;49.048;8.374;2022-11-20T03:39:53;7.80;99.90
40504;DHT22;42292;49.048;8.374;2022-11-20T03:42:21;7.70;99.90
40504;DHT22;42292;49.048;8.374;2022-11-20T03:45:05;7.70;99.90
40504;DHT22;42292;49.048;8.374;2022-11-20T03:47:35;7.80;99.90
40504;DHT22;42292;49.048;8.374;2022-11-20T03:50:01;7.70;99.90
40504;DHT22;42292;49.048;8.374;2022-11-20T03:52:27;7.80;99.90
40504;DHT22;42292;49.048;8.374;2022-11-20T03:54:52;7.80;99.90
40504;DHT22;42292;49.048;8.374;2022-11-20T03:57:20;7.70;99.90
40504;DHT22;42292;49.048;8.374;2022-11-20T03:59:46;7.80;99.90
40504;DHT22;42292;49.048;8.374;2022-11-20T04:02:13;7.80;99.90
40504;DHT22;42292;49.048;8.374;2022-11-20T04:04:41;7.80;99.90
40504;DHT22;42292;49.048;8.374;2022-11-20T04:07:07;7.90;99.90
40504;DHT22;42292;49.048;8.374;2022-11-20T04:09:35;7.90;99.90
40504;DHT22;42292;49.048;8.374;2022-11-20T04:12:00;7.80;99.90
40504;DHT22;42292;49.048;8.374;2022-11-20T04:14:26;7.80;99.90
40504;DHT22;42292;49.048;8.374;2022-11-20T04:16:54;7.90;99.90
40504;DHT22;42292;49.048;8.374;2022-11-20T04:19:19;7.80;99.90
40504;DHT22;42292;49.048;8.374;2022-11-20T04:21:49;7.80;99.90
40504;DHT22;42292;49.048;8.374;2022-11-20T04:24:15;7.70;99.90
40504;DHT22;42292;49.048;8.374;2022-11-20T04:26:43;7.80;99.90
40504;DHT22;42292;49.048;8.374;2022-11-20T04:29:11;7.80;99.90
40504;DHT22;42292;49.048;8.374;2022-11-20T04:31:36;7.90;99.90
40504;DHT22;42292;49.048;8.374;2022-11-20T04:34:04;7.90;99.90
40504;DHT22;42292;49.048;8.374;2022-11-20T04:36:33;7.90;99.90
40504;DHT22;42292;49.048;8.374;2022-11-20T04:39:04;7.90;99.90
40504;DHT22;42292;49.048;8.374;2022-11-20T04:41:33;8.00;99.90
40504;DHT22;42292;49.048;8.374;2022-11-20T04:44:00;7.90;99.90
40504;DHT22;42292;49.048;8.374;2022-11-20T04:46:29;8.00;99.90
40504;DHT22;42292;49.048;8.374;2022-11-20T04:48:58;7.90;99.90
40504;DHT22;42292;49.048;8.374;2022-11-20T04:51:28;8.10;99.90
40504;DHT22;42292;49.048;8.374;2022-11-20T04:53:54;8.00;99.90
40504;DHT22;42292;49.048;8.374;2022-11-20T04:56:20;8.00;99.90
40504;DHT22;42292;49.048;8.374;2022-11-20T04:58:48;7.90;99.90
40504;DHT22;42292;49.048;8.374;2022-11-20T05:01:18;8.10;99.90
40504;DHT22;42292;49.048;8.374;2022-11-20T05:03:48;8.10;99.90
40504;DHT22;42292;49.048;8.374;2022-11-20T05:06:16;8.00;99.90
40504;DHT22;42292;49.048;8.374;2022-11-20T05:08:42;7.90;99.90
40504;DHT22;42292;49.048;8.374;2022-11-20T05:11:09;8.00;99.90
40504;DHT22;42292;49.048;8.374;2022-11-20T05:13:38;7.90;99.90
40504;DHT22;42292;49.048;8.374;2022-11-20T05:16:06;7.90;99.90
40504;DHT22;42292;49.048;8.374;2022-11-20T05:18:36;7.90;99.90
40504;DHT22;42292;49.048;8.374;2022-11-20T05:21:05;7.90;99.90
40504;DHT22;42292;49.048;8.374;2022-11-20T05:23:32;8.00;99.90
40504;DHT22;42292;49.048;8.374;2022-11-20T05:26:01;7.80;99.90
40504;DHT22;42292;49.048;8.374;2022-11-20T05:28:28;8.00;99.90
40504;DHT22;42292;49.048;8.374;2022-11-20T05:30:54;7.80;99.90
40504;DHT22;42292;49.048;8.374;2022-11-20T05:33:19;7.80;99.90
40504;DHT22;42292;49.048;8.374;2022-11-20T05:35:48;7.70;99.90
40504;DHT22;42292;49.048;8.374;2022-11-20T05:38:14;7.70;99.90
40504;DHT22;42292;49.048;8.374;2022-11-20T05:40:40;7.70;99.90
40504;DHT22;42292;49.048;8.374;2022-11-20T05:43:10;7.70;99.90
40504;DHT22;42292;49.048;8.374;2022-11-20T05:45:38;7.80;99.90
40504;DHT22;42292;49.048;8.374;2022-11-20T05:48:03;7.80;99.90
40504;DHT22;42292;49.048;8.374;2022-11-20T05:50:31;7.80;99.90
40504;DHT22;42292;49.048;8.374;2022-11-20T05:53:00;7.70;99.90
40504;DHT22;42292;49.048;8.374;2022-11-20T05:55:27;7.70;99.90
40504;DHT22;42292;49.048;8.374;2022-11-20T05:57:57;7.70;99.90
40504;DHT22;42292;49.048;8.374;2022-11-20T06:00:27;7.70;99.90
40504;DHT22;42292;49.048;8.374;2022-11-20T06:02:55;7.70;99.90
40504;DHT22;42292;49.048;8.374;2022-11-20T06:05:27;7.70;99.90
40504;DHT22;42292;49.048;8.374;2022-11-20T06:08:00;7.70;99.90
40504;DHT22;42292;49.048;8.374;2022-11-20T06:10:28;7.60;99.90
40504;DHT22;42292;49.048;8.374;2022-11-20T06:12:53;7.60;99.90
40504;DHT22;42292;49.048;8.374;2022-11-20T06:15:22;7.70;99.90
40504;DHT22;42292;49.048;8.374;2022-11-20T06:17:54;7.70;99.90
40504;DHT22;42292;49.048;8.374;2022-11-20T06:20:23;7.70;99.90
40504;DHT22;42292;49.048;8.374;2022-11-20T06:22:49;7.60;99.90
40504;DHT22;42292;49.048;8.374;2022-11-20T06:25:14;7.70;99.90
40504;DHT22;42292;49.048;8.374;2022-11-20T06:27:40;7.70;99.90
40504;DHT22;42292;49.048;8.374;2022-11-20T06:30:06;7.60;99.90
40504;DHT22;42292;49.048;8.374;2022-11-20T06:32:32;7.70;99.90
40504;DHT22;42292;49.048;8.374;2022-11-20T06:34:58;7.60;99.90
40504;DHT22;42292;49.048;8.374;2022-11-20T06:37:26;7.80;99.90
40504;DHT22;42292;49.048;8.374;2022-11-20T06:39:54;7.70;99.90
40504;DHT22;42292;49.048;8.374;2022-11-20T06:42:22;7.80;99.90
40504;DHT22;42292;49.048;8.374;2022-11-20T06:44:47;7.70;99.90
40504;DHT22;42292;49.048;8.374;2022-11-20T06:47:15;7.70;99.90
40504;DHT22;42292;49.048;8.374;2022-11-20T06:49:41;7.80;99.90
40504;DHT22;42292;49.048;8.374;2022-11-20T06:52:06;7.80;99.90
40504;DHT22;42292;49.048;8.374;2022-11-20T06:54:34;7.70;99.90
40504;DHT22;42292;49.048;8.374;2022-11-20T06:57:00;7.70;99.90
40504;DHT22;42292;49.048;8.374;2022-11-20T06:59:25;7.80;99.90
40504;DHT22;42292;49.048;8.374;2022-11-20T07:01:51;7.90;99.90
40504;DHT22;42292;49.048;8.374;2022-11-20T07:04:16;7.90;99.90
40504;DHT22;42292;49.048;8.374;2022-11-20T07:06:42;7.90;99.90
40504;DHT22;42292;49.048;8.374;2022-11-20T07:09:10;7.80;99.90
40504;DHT22;42292;49.048;8.374;2022-11-20T07:11:35;7.80;99.90
40504;DHT22;42292;49.048;8.374;2022-11-20T07:14:01;7.80;99.90
40504;DHT22;42292;49.048;8.374;2022-11-20T07:16:26;7.90;99.90
40504;DHT22;42292;49.048;8.374;2022-11-20T07:18:52;7.90;99.90
40504;DHT22;42292;49.048;8.374;2022-11-20T07:21:22;7.90;99.90
40504;DHT22;42292;49.048;8.374;2022-11-20T07:23:50;7.90;99.90
40504;DHT22;42292;49.048;8.374;2022-11-20T07:26:16;7.80;99.90
40504;DHT22;42292;49.048;8.374;2022-11-20T07:28:44;7.80;99.90
40504;DHT22;42292;49.048;8.374;2022-11-20T07:31:10;7.80;99.90
40504;DHT22;42292;49.048;8.374;2022-11-20T07:33:37;7.80;99.90
40504;DHT22;42292;49.048;8.374;2022-11-20T07:36:05;7.70;99.90
40504;DHT22;42292;49.048;8.374;2022-11-20T07:38:33;7.60;99.90
40504;DHT22;42292;49.048;8.374;2022-11-20T07:40:59;7.60;99.90
40504;DHT22;42292;49.048;8.374;2022-11-20T07:43:29;7.60;99.90
40504;DHT22;42292;49.048;8.374;2022-11-20T07:45:55;7.50;99.90
40504;DHT22;42292;49.048;8.374;2022-11-20T07:48:22;7.70;99.90
40504;DHT22;42292;49.048;8.374;2022-11-20T07:50:52;7.60;99.90
40504;DHT22;42292;49.048;8.374;2022-11-20T07:53:20;7.60;99.90
40504;DHT22;42292;49.048;8.374;2022-11-20T07:55:47;7.50;99.90
40504;DHT22;42292;49.048;8.374;2022-11-20T07:58:13;7.50;99.90
40504;DHT22;42292;49.048;8.374;2022-11-20T08:00:39;7.50;99.90
40504;DHT22;42292;49.048;8.374;2022-11-20T08:03:07;7.50;99.90
40504;DHT22;42292;49.048;8.374;2022-11-20T08:05:35;7.50;99.90
40504;DHT22;42292;49.048;8.374;2022-11-20T08:08:01;7.60;99.90
40504;DHT22;42292;49.048;8.374;2022-11-20T08:10:26;7.50;99.90
40504;DHT22;42292;49.048;8.374;2022-11-20T08:12:54;7.60;99.90
40504;DHT22;42292;49.048;8.374;2022-11-20T08:15:47;7.50;99.90
40504;DHT22;42292;49.048;8.374;2022-11-20T08:18:16;7.70;99.90
40504;DHT22;42292;49.048;8.374;2022-11-20T08:20:42;7.70;99.90
40504;DHT22;42292;49.048;8.374;2022-11-20T08:23:08;7.70;99.90
40504;DHT22;42292;49.048;8.374;2022-11-20T08:25:35;7.80;99.90
40504;DHT22;42292;49.048;8.374;2022-11-20T08:28:04;7.70;99.90
40504;DHT22;42292;49.048;8.374;2022-11-20T08:30:33;7.80;99.90
40504;DHT22;42292;49.048;8.374;2022-11-20T08:33:07;7.70;99.90
40504;DHT22;42292;49.048;8.374;2022-11-20T08:35:36;7.80;99.90
40504;DHT22;42292;49.048;8.374;2022-11-20T08:38:03;7.70;99.90
40504;DHT22;42292;49.048;8.374;2022-11-20T08:40:32;7.80;99.90
40504;DHT22;42292;49.048;8.374;2022-11-20T08:42:58;8.00;99.90
40504;DHT22;42292;49.048;8.374;2022-11-20T08:45:24;7.90;99.90
40504;DHT22;42292;49.048;8.374;2022-11-20T08:47:49;7.90;99.90
40504;DHT22;42292;49.048;8.374;2022-11-20T08:50:16;7.90;99.90
40504;DHT22;42292;49.048;8.374;2022-11-20T08:52:42;7.90;99.90
40504;DHT22;42292;49.048;8.374;2022-11-20T08:55:13;8.00;99.90
40504;DHT22;42292;49.048;8.374;2022-11-20T08:57:41;8.00;99.90
40504;DHT22;42292;49.048;8.374;2022-11-20T09:00:09;8.10;99.90
40504;DHT22;42292;49.048;8.374;2022-11-20T09:02:38;8.20;99.90
40504;DHT22;42292;49.048;8.374;2022-11-20T09:05:06;8.20;99.90
40504;DHT22;42292;49.048;8.374;2022-11-20T09:07:34;8.10;99.90
40504;DHT22;42292;49.048;8.374;2022-11-20T09:09:59;8.20;99.90
40504;DHT22;42292;49.048;8.374;2022-11-20T09:12:30;8.20;99.90
40504;DHT22;42292;49.048;8.374;2022-11-20T09:14:55;8.30;99.90
40504;DHT22;42292;49.048;8.374;2022-11-20T09:17:23;8.30;99.90
40504;DHT22;42292;49.048;8.374;2022-11-20T09:19:51;8.40;99.90
40504;DHT22;42292;49.048;8.374;2022-11-20T09:22:17;8.40;99.90
40504;DHT22;42292;49.048;8.374;2022-11-20T09:24:42;8.50;99.90
40504;DHT22;42292;49.048;8.374;2022-11-20T09:27:08;8.50;99.90
40504;DHT22;42292;49.048;8.374;2022-11-20T09:29:34;8.60;99.90
40504;DHT22;42292;49.048;8.374;2022-11-20T09:31:59;8.60;99.90
40504;DHT22;42292;49.048;8.374;2022-11-20T09:34:25;8.40;99.90
40504;DHT22;42292;49.048;8.374;2022-11-20T09:36:51;8.60;99.90
40504;DHT22;42292;49.048;8.374;2022-11-20T09:39:16;8.60;99.90
40504;DHT22;42292;49.048;8.374;2022-11-20T09:42:51;8.50;99.90
40504;DHT22;42292;49.048;8.374;2022-11-20T09:50:45;8.50;99.90
40504;DHT22;42292;49.048;8.374;2022-11-20T09:53:30;8.40;99.90
40504;DHT22;42292;49.048;8.374;2022-11-20T09:56:06;8.50;99.90
40504;DHT22;42292;49.048;8.374;2022-11-20T09:58:54;8.40;99.90
40504;DHT22;42292;49.048;8.374;2022-11-20T10:01:23;8.40;99.90
40504;DHT22;42292;49.048;8.374;2022-11-20T10:04:19;8.40;99.90
40504;DHT22;42292;49.048;8.374;2022-11-20T10:20:10;8.70;99.90
40504;DHT22;42292;49.048;8.374;2022-11-20T10:31:42;8.90;99.90
40504;DHT22;42292;49.048;8.374;2022-11-20T10:34:20;9.00;99.90
40504;DHT22;42292;49.048;8.374;2022-11-20T10:36:56;9.50;99.90
40504;DHT22;42292;49.048;8.374;2022-11-20T10:39:35;9.80;99.90
40504;DHT22;42292;49.048;8.374;2022-11-20T10:42:09;10.00;99.90
40504;DHT22;42292;49.048;8.374;2022-11-20T10:44:38;10.10;99.90
40504;DHT22;42292;49.048;8.374;2022-11-20T10:47:25;9.80;99.90
40504;DHT22;42292;49.048;8.374;2022-11-20T10:49:57;9.60;99.90
40504;DHT22;42292;49.048;8.374;2022-11-20T11:00:20;9.70;99.90
40504;DHT22;42292;49.048;8.374;2022-11-20T11:02:51;9.60;99.90
40504;DHT22;42292;49.048;8.374;2022-11-20T11:08:23;9.70;99.90
40504;DHT22;42292;49.048;8.374;2022-11-20T11:10:54;9.80;99.90
40504;DHT22;42292;49.048;8.374;2022-11-20T11:13:25;10.40;99.90
40504;DHT22;42292;49.048;8.374;2022-11-20T11:15:52;10.50;99.90
40504;DHT22;42292;49.048;8.374;2022-11-20T11:18:47;10.50;99.90
40504;DHT22;42292;49.048;8.374;2022-11-20T11:21:19;10.40;99.90
40504;DHT22;42292;49.048;8.374;2022-11-20T11:23:58;10.30;99.90
40504;DHT22;42292;49.048;8.374;2022-11-20T11:26:24;10.30;99.90
40504;DHT22;42292;49.048;8.374;2022-11-20T11:28:56;11.00;99.90
40504;DHT22;42292;49.048;8.374;2022-11-20T11:31:34;11.90;99.90
40504;DHT22;42292;49.048;8.374;2022-11-20T11:34:16;11.50;99.90
40504;DHT22;42292;49.048;8.374;2022-11-20T11:36:56;11.10;99.90
40504;DHT22;42292;49.048;8.374;2022-11-20T11:39:22;11.20;99.90
40504;DHT22;42292;49.048;8.374;2022-11-20T11:41:48;10.90;99.90
40504;DHT22;42292;49.048;8.374;2022-11-20T11:44:18;10.90;99.90
40504;DHT22;42292;49.048;8.374;2022-11-20T11:47:42;11.50;99.90
40504;DHT22;42292;49.048;8.374;2022-11-20T11:50:23;12.00;99.90
40504;DHT22;42292;49.048;8.374;2022-11-20T11:58:44;20.10;99.90
40504;DHT22;42292;49.048;8.374;2022-11-20T12:01:45;20.50;94.70
40504;DHT22;42292;49.048;8.374;2022-11-20T12:07:06;20.20;91.50
40504;DHT22;42292;49.048;8.374;2022-11-20T12:09:46;18.80;91.10
40504;DHT22;42292;49.048;8.374;2022-11-20T12:12:24;19.60;90.20
40504;DHT22;42292;49.048;8.374;2022-11-20T12:14:57;17.40;93.70
40504;DHT22;42292;49.048;8.374;2022-11-20T12:17:25;18.70;92.70
40504;DHT22;42292;49.048;8.374;2022-11-20T12:19:53;17.60;92.10
40504;DHT22;42292;49.048;8.374;2022-11-20T12:22:41;14.10;98.60
40504;DHT22;42292;49.048;8.374;2022-11-20T12:25:17;12.70;99.90
40504;DHT22;42292;49.048;8.374;2022-11-20T12:33:49;12.00;99.90
40504;DHT22;42292;49.048;8.374;2022-11-20T12:53:05;18.60;91.40
40504;DHT22;42292;49.048;8.374;2022-11-20T13:00:31;22.30;77.90
40504;DHT22;42292;49.048;8.374;2022-11-20T13:03:25;20.00;80.70
40504;DHT22;42292;49.048;8.374;2022-11-20T13:08:32;18.30;83.90
40504;DHT22;42292;49.048;8.374;2022-11-20T13:11:03;18.80;82.30
40504;DHT22;42292;49.048;8.374;2022-11-20T13:13:45;18.90;82.50
40504;DHT22;42292;49.048;8.374;2022-11-20T13:16:17;16.30;87.20
40504;DHT22;42292;49.048;8.374;2022-11-20T13:18:45;14.00;92.20
40504;DHT22;42292;49.048;8.374;2022-11-20T13:21:44;13.60;93.20
40504;DHT22;42292;49.048;8.374;2022-11-20T13:29:37;11.50;99.90
40504;DHT22;42292;49.048;8.374;2022-11-20T13:32:17;11.30;99.90
40504;DHT22;42292;49.048;8.374;2022-11-20T13:35:01;11.00;99.90
40504;DHT22;42292;49.048;8.374;2022-11-20T13:37:36;10.90;99.90
40504;DHT22;42292;49.048;8.374;2022-11-20T13:43:02;11.80;99.90
40504;DHT22;42292;49.048;8.374;2022-11-20T13:45:31;13.40;99.90
40504;DHT22;42292;49.048;8.374;2022-11-20T13:48:05;13.20;99.20
40504;DHT22;42292;49.048;8.374;2022-11-20T14:02:27;11.20;99.90
40504;DHT22;42292;49.048;8.374;2022-11-20T14:04:59;11.10;99.90
40504;DHT22;42292;49.048;8.374;2022-11-20T14:07:34;11.20;99.90
40504;DHT22;42292;49.048;8.374;2022-11-20T14:10:03;11.10;99.90
40504;DHT22;42292;49.048;8.374;2022-11-20T14:12:31;11.10;99.90
40504;DHT22;42292;49.048;8.374;2022-11-20T14:15:04;11.00;99.90
40504;DHT22;42292;49.048;8.374;2022-11-20T14:19:59;10.60;99.90
40504;DHT22;42292;49.048;8.374;2022-11-20T14:22:26;10.40;99.90
40504;DHT22;42292;49.048;8.374;2022-11-20T14:27:46;10.40;99.90
40504;DHT22;42292;49.048;8.374;2022-11-20T14:30:18;10.30;99.90
40504;DHT22;42292;49.048;8.374;2022-11-20T14:32:45;10.10;99.90
40504;DHT22;42292;49.048;8.374;2022-11-20T14:35:25;10.20;99.90
40504;DHT22;42292;49.048;8.374;2022-11-20T14:37:52;10.30;99.90
40504;DHT22;42292;49.048;8.374;2022-11-20T14:40:36;10.10;99.90
40504;DHT22;42292;49.048;8.374;2022-11-20T14:43:16;9.90;99.90
40504;DHT22;42292;49.048;8.374;2022-11-20T14:46:24;9.90;99.90
40504;DHT22;42292;49.048;8.374;2022-11-20T14:48:53;9.90;99.90
40504;DHT22;42292;49.048;8.374;2022-11-20T14:51:32;9.90;99.90
40504;DHT22;42292;49.048;8.374;2022-11-20T14:56:40;9.80;99.90
40504;DHT22;42292;49.048;8.374;2022-11-20T14:59:09;9.80;99.90
40504;DHT22;42292;49.048;8.374;2022-11-20T15:01:35;9.60;99.90
40504;DHT22;42292;49.048;8.374;2022-11-20T15:04:10;9.60;99.90
40504;DHT22;42292;49.048;8.374;2022-11-20T15:06:37;9.50;99.90
40504;DHT22;42292;49.048;8.374;2022-11-20T15:09:14;9.50;99.90
40504;DHT22;42292;49.048;8.374;2022-11-20T15:14:25;9.60;99.90
40504;DHT22;42292;49.048;8.374;2022-11-20T15:16:51;9.40;99.90
40504;DHT22;42292;49.048;8.374;2022-11-20T15:19:23;9.30;99.90
40504;DHT22;42292;49.048;8.374;2022-11-20T15:21:49;9.30;99.90
40504;DHT22;42292;49.048;8.374;2022-11-20T15:24:16;9.30;99.90
40504;DHT22;42292;49.048;8.374;2022-11-20T15:26:44;9.30;99.90
40504;DHT22;42292;49.048;8.374;2022-11-20T15:29:14;9.30;99.90
40504;DHT22;42292;49.048;8.374;2022-11-20T15:31:40;9.20;99.90
40504;DHT22;42292;49.048;8.374;2022-11-20T15:34:11;9.30;99.90
40504;DHT22;42292;49.048;8.374;2022-11-20T15:36:38;9.30;99.90
40504;DHT22;42292;49.048;8.374;2022-11-20T15:39:04;9.30;99.90
40504;DHT22;42292;49.048;8.374;2022-11-20T15:41:29;9.20;99.90
40504;DHT22;42292;49.048;8.374;2022-11-20T15:43:55;9.20;99.90
40504;DHT22;42292;49.048;8.374;2022-11-20T15:46:26;9.20;99.90
40504;DHT22;42292;49.048;8.374;2022-11-20T15:48:57;9.40;99.90
40504;DHT22;42292;49.048;8.374;2022-11-20T15:51:30;9.30;99.90
40504;DHT22;42292;49.048;8.374;2022-11-20T15:53:59;9.30;99.90
40504;DHT22;42292;49.048;8.374;2022-11-20T15:56:25;9.30;99.90
40504;DHT22;42292;49.048;8.374;2022-11-20T15:58:51;9.40;99.90
40504;DHT22;42292;49.048;8.374;2022-11-20T16:01:19;9.40;99.90
40504;DHT22;42292;49.048;8.374;2022-11-20T16:03:48;9.30;99.90
40504;DHT22;42292;49.048;8.374;2022-11-20T16:06:14;9.20;99.90
40504;DHT22;42292;49.048;8.374;2022-11-20T16:08:41;9.20;99.90
40504;DHT22;42292;49.048;8.374;2022-11-20T16:11:09;9.30;99.90
40504;DHT22;42292;49.048;8.374;2022-11-20T16:13:35;9.30;99.90
40504;DHT22;42292;49.048;8.374;2022-11-20T16:16:26;9.30;99.90
40504;DHT22;42292;49.048;8.374;2022-11-20T16:18:56;9.30;99.90
40504;DHT22;42292;49.048;8.374;2022-11-20T16:21:21;9.30;99.90
40504;DHT22;42292;49.048;8.374;2022-11-20T16:23:53;9.20;99.90
40504;DHT22;42292;49.048;8.374;2022-11-20T16:26:19;9.10;99.90
40504;DHT22;42292;49.048;8.374;2022-11-20T16:28:45;9.20;99.90
40504;DHT22;42292;49.048;8.374;2022-11-20T16:31:19;9.20;99.90
40504;DHT22;42292;49.048;8.374;2022-11-20T16:33:52;9.20;99.90
40504;DHT22;42292;49.048;8.374;2022-11-20T16:36:19;9.10;99.90
40504;DHT22;42292;49.048;8.374;2022-11-20T16:38:52;9.10;99.90
40504;DHT22;42292;49.048;8.374;2022-11-20T16:41:23;9.20;99.90
40504;DHT22;42292;49.048;8.374;2022-11-20T16:43:56;9.10;99.90
40504;DHT22;42292;49.048;8.374;2022-11-20T16:46:24;9.10;99.90
40504;DHT22;42292;49.048;8.374;2022-11-20T16:48:57;9.10;99.90
40504;DHT22;42292;49.048;8.374;2022-11-20T16:51:24;9.20;99.90
40504;DHT22;42292;49.048;8.374;2022-11-20T16:53:50;9.20;99.90
40504;DHT22;42292;49.048;8.374;2022-11-20T16:56:20;9.20;99.90
40504;DHT22;42292;49.048;8.374;2022-11-20T16:58:49;9.20;99.90
40504;DHT22;42292;49.048;8.374;2022-11-20T17:01:19;9.20;99.90
40504;DHT22;42292;49.048;8.374;2022-11-20T17:04:02;9.10;99.90
40504;DHT22;42292;49.048;8.374;2022-11-20T17:06:36;9.20;99.90
40504;DHT22;42292;49.048;8.374;2022-11-20T17:09:02;9.20;99.90
40504;DHT22;42292;49.048;8.374;2022-11-20T17:11:28;9.20;99.90
40504;DHT22;42292;49.048;8.374;2022-11-20T17:13:56;9.10;99.90
40504;DHT22;42292;49.048;8.374;2022-11-20T17:16:24;9.20;99.90
40504;DHT22;42292;49.048;8.374;2022-11-20T17:18:50;9.00;99.90
40504;DHT22;42292;49.048;8.374;2022-11-20T17:21:23;8.80;99.90
40504;DHT22;42292;49.048;8.374;2022-11-20T17:23:51;8.80;99.90
40504;DHT22;42292;49.048;8.374;2022-11-20T17:26:21;9.00;99.90
40504;DHT22;42292;49.048;8.374;2022-11-20T17:28:56;8.90;99.90
40504;DHT22;42292;49.048;8.374;2022-11-20T17:31:23;8.80;99.90
40504;DHT22;42292;49.048;8.374;2022-11-20T17:33:49;8.90;99.90
40504;DHT22;42292;49.048;8.374;2022-11-20T17:36:18;8.70;99.90
40504;DHT22;42292;49.048;8.374;2022-11-20T17:38:44;8.60;99.90
40504;DHT22;42292;49.048;8.374;2022-11-20T17:41:18;8.60;99.90
40504;DHT22;42292;49.048;8.374;2022-11-20T17:43:44;8.60;99.90
40504;DHT22;42292;49.048;8.374;2022-11-20T17:46:18;8.60;99.90
40504;DHT22;42292;49.048;8.374;2022-11-20T17:48:48;8.50;99.90
40504;DHT22;42292;49.048;8.374;2022-11-20T17:53:46;8.70;99.90
40504;DHT22;42292;49.048;8.374;2022-11-20T17:56:13;8.70;99.90
40504;DHT22;42292;49.048;8.374;2022-11-20T17:59:02;8.70;99.90
40504;DHT22;42292;49.048;8.374;2022-11-20T18:01:31;8.80;99.90
40504;DHT22;42292;49.048;8.374;2022-11-20T18:03:59;8.60;99.90